sensor_id;sensor_type;location;lat;lon;timestamp;temperature;humidity
39847;DHT22;25517;52.422;10.782;2023-04-03T00:01:11;1.40;99.90
39847;DHT22;25517;52.422;10.782;2023-04-03T00:03:37;1.30;99.90
39847;DHT22;25517;52.422;10.782;2023-04-03T00:06:03;1.30;99.90
39847;DHT22;25517;52.422;10.782;2023-04-03T00:08:30;1.20;99.90
39847;DHT22;25517;52.422;10.782;2023-04-03T00:10:58;1.20;99.90
39847;DHT22;25517;52.422;10.782;2023-04-03T00:13:23;1.20;99.90
39847;DHT22;25517;52.422;10.782;2023-04-03T00:15:49;1.20;99.90
39847;DHT22;25517;52.422;10.782;2023-04-03T00:18:15;1.10;99.90
39847;DHT22;25517;52.422;10.782;2023-04-03T00:20:40;1.10;99.90
39847;DHT22;25517;52.422;10.782;2023-04-03T00:23:06;1.10;99.90
39847;DHT22;25517;52.422;10.782;2023-04-03T00:25:32;1.00;99.90
39847;DHT22;25517;52.422;10.782;2023-04-03T00:27:57;1.00;99.90
39847;DHT22;25517;52.422;10.782;2023-04-03T00:30:23;0.90;99.90
39847;DHT22;25517;52.422;10.782;2023-04-03T00:32:50;0.90;99.90
39847;DHT22;25517;52.422;10.782;2023-04-03T00:35:17;0.90;99.90
39847;DHT22;25517;52.422;10.782;2023-04-03T00:37:43;0.90;99.90
39847;DHT22;25517;52.422;10.782;2023-04-03T00:40:10;0.90;99.90
39847;DHT22;25517;52.422;10.782;2023-04-03T00:42:37;0.90;99.90
39847;DHT22;25517;52.422;10.782;2023-04-03T00:47:30;0.90;99.90
39847;DHT22;25517;52.422;10.782;2023-04-03T00:49:57;0.90;99.90
39847;DHT22;25517;52.422;10.782;2023-04-03T00:52:27;0.90;99.90
39847;DHT22;25517;52.422;10.782;2023-04-03T00:54:56;0.90;99.90
39847;DHT22;25517;52.422;10.782;2023-04-03T00:57:23;0.90;99.90
39847;DHT22;25517;52.422;10.782;2023-04-03T00:59:53;0.80;99.90
39847;DHT22;25517;52.422;10.782;2023-04-03T01:02:19;0.90;99.90
39847;DHT22;25517;52.422;10.782;2023-04-03T01:04:45;0.80;99.90
39847;DHT22;25517;52.422;10.782;2023-04-03T01:07:22;0.80;99.90
39847;DHT22;25517;52.422;10.782;2023-04-03T01:09:51;0.80;99.90
39847;DHT22;25517;52.422;10.782;2023-04-03T01:12:18;0.70;99.90
39847;DHT22;25517;52.422;10.782;2023-04-03T01:14:45;0.70;99.90
39847;DHT22;25517;52.422;10.782;2023-04-03T01:25:34;0.60;99.90
39847;DHT22;25517;52.422;10.782;2023-04-03T01:27:59;0.60;99.90
39847;DHT22;25517;52.422;10.782;2023-04-03T01:30:30;0.50;99.90
39847;DHT22;25517;52.422;10.782;2023-04-03T01:32:56;0.50;99.90
39847;DHT22;25517;52.422;10.782;2023-04-03T01:35:22;0.50;99.90
39847;DHT22;25517;52.422;10.782;2023-04-03T01:37:48;0.50;99.90
39847;DHT22;25517;52.422;10.782;2023-04-03T01:40:13;0.50;99.90
39847;DHT22;25517;52.422;10.782;2023-04-03T01:42:39;0.50;99.90
39847;DHT22;25517;52.422;10.782;2023-04-03T01:45:05;0.50;99.90
39847;DHT22;25517;52.422;10.782;2023-04-03T01:47:30;0.40;99.90
39847;DHT22;25517;52.422;10.782;2023-04-03T01:49:56;0.40;99.90
39847;DHT22;25517;52.422;10.782;2023-04-03T01:52:21;0.40;99.90
39847;DHT22;25517;52.422;10.782;2023-04-03T01:54:47;0.30;99.90
39847;DHT22;25517;52.422;10.782;2023-04-03T01:57:12;0.30;99.90
39847;DHT22;25517;52.422;10.782;2023-04-03T01:59:40;0.30;99.90
39847;DHT22;25517;52.422;10.782;2023-04-03T02:02:06;0.30;99.90
39847;DHT22;25517;52.422;10.782;2023-04-03T02:04:31;0.30;99.90
39847;DHT22;25517;52.422;10.782;2023-04-03T02:06:57;0.30;99.90
39847;DHT22;25517;52.422;10.782;2023-04-03T02:09:22;0.30;99.90
39847;DHT22;25517;52.422;10.782;2023-04-03T02:11:48;0.30;99.90
39847;DHT22;25517;52.422;10.782;2023-04-03T02:14:13;0.30;99.90
39847;DHT22;25517;52.422;10.782;2023-04-03T02:16:39;0.30;99.90
39847;DHT22;25517;52.422;10.782;2023-04-03T02:19:05;0.30;99.90
39847;DHT22;25517;52.422;10.782;2023-04-03T02:21:31;0.30;99.90
39847;DHT22;25517;52.422;10.782;2023-04-03T02:23:56;0.30;99.90
39847;DHT22;25517;52.422;10.782;2023-04-03T02:26:22;0.20;99.90
39847;DHT22;25517;52.422;10.782;2023-04-03T02:28:48;0.20;99.90
39847;DHT22;25517;52.422;10.782;2023-04-03T02:31:13;0.20;99.90
39847;DHT22;25517;52.422;10.782;2023-04-03T02:33:39;0.20;99.90
39847;DHT22;25517;52.422;10.782;2023-04-03T02:36:06;0.20;99.90
39847;DHT22;25517;52.422;10.782;2023-04-03T02:38:33;0.20;99.90
39847;DHT22;25517;52.422;10.782;2023-04-03T02:41:07;0.20;99.90
39847;DHT22;25517;52.422;10.782;2023-04-03T02:43:33;0.10;99.90
39847;DHT22;25517;52.422;10.782;2023-04-03T02:45:59;0.10;99.90
39847;DHT22;25517;52.422;10.782;2023-04-03T02:48:24;0.10;99.90
39847;DHT22;25517;52.422;10.782;2023-04-03T02:50:50;0.10;99.90
39847;DHT22;25517;52.422;10.782;2023-04-03T02:53:17;0.10;99.90
39847;DHT22;25517;52.422;10.782;2023-04-03T02:55:43;0.10;99.90
39847;DHT22;25517;52.422;10.782;2023-04-03T02:58:09;0.10;99.90
39847;DHT22;25517;52.422;10.782;2023-04-03T03:00:34;0.00;99.90
39847;DHT22;25517;52.422;10.782;2023-04-03T03:03:00;0.10;99.90
39847;DHT22;25517;52.422;10.782;2023-04-03T03:05:26;0.10;99.90
39847;DHT22;25517;52.422;10.782;2023-04-03T03:07:52;0.10;99.90
39847;DHT22;25517;52.422;10.782;2023-04-03T03:10:19;0.00;99.90
39847;DHT22;25517;52.422;10.782;2023-04-03T03:12:44;0.00;99.90
39847;DHT22;25517;52.422;10.782;2023-04-03T03:15:10;0.00;99.90
39847;DHT22;25517;52.422;10.782;2023-04-03T03:17:36;0.00;99.90
39847;DHT22;25517;52.422;10.782;2023-04-03T03:20:02;0.00;99.90
39847;DHT22;25517;52.422;10.782;2023-04-03T03:22:28;0.00;99.90
39847;DHT22;25517;52.422;10.782;2023-04-03T03:24:54;0.00;99.90
39847;DHT22;25517;52.422;10.782;2023-04-03T03:27:20;0.00;99.90
39847;DHT22;25517;52.422;10.782;2023-04-03T03:29:46;0.00;99.90
39847;DHT22;25517;52.422;10.782;2023-04-03T03:32:11;0.00;99.90
39847;DHT22;25517;52.422;10.782;2023-04-03T03:34:37;-0.10;99.90
39847;DHT22;25517;52.422;10.782;2023-04-03T03:37:02;0.00;99.90
39847;DHT22;25517;52.422;10.782;2023-04-03T03:39:28;-0.10;99.90
39847;DHT22;25517;52.422;10.782;2023-04-03T03:41:53;0.00;99.90
39847;DHT22;25517;52.422;10.782;2023-04-03T03:44:19;-0.10;99.90
39847;DHT22;25517;52.422;10.782;2023-04-03T03:46:46;-0.10;99.90
39847;DHT22;25517;52.422;10.782;2023-04-03T03:49:11;-0.10;99.90
39847;DHT22;25517;52.422;10.782;2023-04-03T03:51:37;-0.10;99.90
39847;DHT22;25517;52.422;10.782;2023-04-03T03:54:04;-0.20;99.90
39847;DHT22;25517;52.422;10.782;2023-04-03T03:56:30;-0.10;99.90
39847;DHT22;25517;52.422;10.782;2023-04-03T03:58:56;-0.20;99.90
39847;DHT22;25517;52.422;10.782;2023-04-03T04:01:23;-0.10;99.90
39847;DHT22;25517;52.422;10.782;2023-04-03T04:03:48;-0.10;99.90
39847;DHT22;25517;52.422;10.782;2023-04-03T04:06:14;-0.20;99.90
39847;DHT22;25517;52.422;10.782;2023-04-03T04:08:40;-0.20;99.90
39847;DHT22;25517;52.422;10.782;2023-04-03T04:11:06;-0.20;99.90
39847;DHT22;25517;52.422;10.782;2023-04-03T04:13:32;-0.30;99.90
39847;DHT22;25517;52.422;10.782;2023-04-03T04:15:57;-0.20;99.90
39847;DHT22;25517;52.422;10.782;2023-04-03T04:18:23;-0.20;99.90
39847;DHT22;25517;52.422;10.782;2023-04-03T04:20:49;-0.30;99.90
39847;DHT22;25517;52.422;10.782;2023-04-03T04:23:16;-0.30;99.90
39847;DHT22;25517;52.422;10.782;2023-04-03T04:25:45;-0.30;99.90
39847;DHT22;25517;52.422;10.782;2023-04-03T04:28:10;-0.30;99.90
39847;DHT22;25517;52.422;10.782;2023-04-03T04:30:36;-0.30;99.90
39847;DHT22;25517;52.422;10.782;2023-04-03T04:33:02;-0.30;99.90
39847;DHT22;25517;52.422;10.782;2023-04-03T04:35:27;-0.40;99.90
39847;DHT22;25517;52.422;10.782;2023-04-03T04:37:53;-0.30;99.90
39847;DHT22;25517;52.422;10.782;2023-04-03T04:40:18;-0.30;99.90
39847;DHT22;25517;52.422;10.782;2023-04-03T04:42:44;-0.30;99.90
39847;DHT22;25517;52.422;10.782;2023-04-03T04:45:10;-0.30;99.90
39847;DHT22;25517;52.422;10.782;2023-04-03T04:47:35;-0.30;99.90
39847;DHT22;25517;52.422;10.782;2023-04-03T04:50:01;-0.30;99.90
39847;DHT22;25517;52.422;10.782;2023-04-03T04:52:26;-0.30;99.90
39847;DHT22;25517;52.422;10.782;2023-04-03T04:54:52;-0.30;99.90
39847;DHT22;25517;52.422;10.782;2023-04-03T04:57:18;-0.30;99.90
39847;DHT22;25517;52.422;10.782;2023-04-03T04:59:43;-0.30;99.90
39847;DHT22;25517;52.422;10.782;2023-04-03T05:02:09;-0.30;99.90
39847;DHT22;25517;52.422;10.782;2023-04-03T05:04:34;-0.30;99.90
39847;DHT22;25517;52.422;10.782;2023-04-03T05:07:00;-0.40;99.90
39847;DHT22;25517;52.422;10.782;2023-04-03T05:09:25;-0.40;99.90
39847;DHT22;25517;52.422;10.782;2023-04-03T05:11:51;-0.30;99.90
39847;DHT22;25517;52.422;10.782;2023-04-03T05:14:17;-0.30;99.90
39847;DHT22;25517;52.422;10.782;2023-04-03T05:16:42;-0.30;99.90
39847;DHT22;25517;52.422;10.782;2023-04-03T05:19:08;-0.30;99.90
39847;DHT22;25517;52.422;10.782;2023-04-03T05:21:33;-0.30;99.90
39847;DHT22;25517;52.422;10.782;2023-04-03T05:24:00;-0.30;99.90
39847;DHT22;25517;52.422;10.782;2023-04-03T05:26:29;-0.30;99.90
39847;DHT22;25517;52.422;10.782;2023-04-03T05:28:54;-0.30;99.90
39847;DHT22;25517;52.422;10.782;2023-04-03T05:31:20;-0.30;99.90
39847;DHT22;25517;52.422;10.782;2023-04-03T05:33:45;-0.30;99.90
39847;DHT22;25517;52.422;10.782;2023-04-03T05:36:12;-0.20;99.90
39847;DHT22;25517;52.422;10.782;2023-04-03T05:38:38;-0.20;99.90
39847;DHT22;25517;52.422;10.782;2023-04-03T05:41:04;-0.20;99.90
39847;DHT22;25517;52.422;10.782;2023-04-03T05:43:29;-0.20;99.90
39847;DHT22;25517;52.422;10.782;2023-04-03T05:45:56;-0.10;99.90
39847;DHT22;25517;52.422;10.782;2023-04-03T05:48:22;-0.10;99.90
39847;DHT22;25517;52.422;10.782;2023-04-03T05:50:47;-0.10;99.90
39847;DHT22;25517;52.422;10.782;2023-04-03T05:53:17;-0.10;99.90
39847;DHT22;25517;52.422;10.782;2023-04-03T05:55:44;0.00;99.90
39847;DHT22;25517;52.422;10.782;2023-04-03T05:58:10;0.00;99.90
39847;DHT22;25517;52.422;10.782;2023-04-03T06:00:36;0.10;99.90
39847;DHT22;25517;52.422;10.782;2023-04-03T06:03:01;0.10;99.90
39847;DHT22;25517;52.422;10.782;2023-04-03T06:05:27;0.10;99.90
39847;DHT22;25517;52.422;10.782;2023-04-03T06:07:53;0.10;99.90
39847;DHT22;25517;52.422;10.782;2023-04-03T06:10:18;0.20;99.90
39847;DHT22;25517;52.422;10.782;2023-04-03T06:12:45;0.20;99.90
39847;DHT22;25517;52.422;10.782;2023-04-03T06:15:11;0.20;99.90
39847;DHT22;25517;52.422;10.782;2023-04-03T06:17:37;0.20;99.90
39847;DHT22;25517;52.422;10.782;2023-04-03T06:20:03;0.30;99.90
39847;DHT22;25517;52.422;10.782;2023-04-03T06:22:29;0.30;99.90
39847;DHT22;25517;52.422;10.782;2023-04-03T06:24:56;0.30;99.90
39847;DHT22;25517;52.422;10.782;2023-04-03T06:27:21;0.40;99.90
39847;DHT22;25517;52.422;10.782;2023-04-03T06:29:47;0.40;99.90
39847;DHT22;25517;52.422;10.782;2023-04-03T06:32:14;0.50;99.90
39847;DHT22;25517;52.422;10.782;2023-04-03T06:34:39;0.50;99.90
39847;DHT22;25517;52.422;10.782;2023-04-03T06:37:05;0.60;99.90
39847;DHT22;25517;52.422;10.782;2023-04-03T06:39:31;0.60;99.90
39847;DHT22;25517;52.422;10.782;2023-04-03T06:41:57;0.60;99.90
39847;DHT22;25517;52.422;10.782;2023-04-03T06:44:23;0.70;99.90
39847;DHT22;25517;52.422;10.782;2023-04-03T06:46:49;0.70;99.90
39847;DHT22;25517;52.422;10.782;2023-04-03T06:49:14;0.80;99.90
39847;DHT22;25517;52.422;10.782;2023-04-03T06:51:40;0.80;99.90
39847;DHT22;25517;52.422;10.782;2023-04-03T06:54:07;0.90;99.90
39847;DHT22;25517;52.422;10.782;2023-04-03T06:56:33;1.00;99.90
39847;DHT22;25517;52.422;10.782;2023-04-03T06:58:59;1.00;99.90
39847;DHT22;25517;52.422;10.782;2023-04-03T07:01:26;1.10;99.90
39847;DHT22;25517;52.422;10.782;2023-04-03T07:03:53;1.10;99.90
39847;DHT22;25517;52.422;10.782;2023-04-03T07:06:19;1.20;99.90
39847;DHT22;25517;52.422;10.782;2023-04-03T07:08:45;1.30;99.90
39847;DHT22;25517;52.422;10.782;2023-04-03T07:11:11;1.40;99.90
39847;DHT22;25517;52.422;10.782;2023-04-03T07:13:37;1.50;99.90
39847;DHT22;25517;52.422;10.782;2023-04-03T07:16:03;1.50;99.90
39847;DHT22;25517;52.422;10.782;2023-04-03T07:18:30;1.60;99.90
39847;DHT22;25517;52.422;10.782;2023-04-03T07:20:56;1.70;99.90
39847;DHT22;25517;52.422;10.782;2023-04-03T07:23:22;1.80;99.90
39847;DHT22;25517;52.422;10.782;2023-04-03T07:25:49;1.90;99.90
39847;DHT22;25517;52.422;10.782;2023-04-03T07:28:16;2.00;99.90
39847;DHT22;25517;52.422;10.782;2023-04-03T07:31:05;2.10;99.90
39847;DHT22;25517;52.422;10.782;2023-04-03T07:33:33;2.50;99.90
39847;DHT22;25517;52.422;10.782;2023-04-03T07:36:00;2.90;99.90
39847;DHT22;25517;52.422;10.782;2023-04-03T07:38:26;3.10;99.90
39847;DHT22;25517;52.422;10.782;2023-04-03T07:40:52;3.20;99.90
39847;DHT22;25517;52.422;10.782;2023-04-03T07:43:19;3.20;99.90
39847;DHT22;25517;52.422;10.782;2023-04-03T07:45:45;3.20;99.90
39847;DHT22;25517;52.422;10.782;2023-04-03T07:48:13;3.40;99.90
39847;DHT22;25517;52.422;10.782;2023-04-03T07:50:44;3.40;99.90
39847;DHT22;25517;52.422;10.782;2023-04-03T07:53:10;3.50;99.90
39847;DHT22;25517;52.422;10.782;2023-04-03T07:55:36;3.50;99.90
39847;DHT22;25517;52.422;10.782;2023-04-03T07:58:11;3.70;99.90
39847;DHT22;25517;52.422;10.782;2023-04-03T08:00:44;4.10;99.90
39847;DHT22;25517;52.422;10.782;2023-04-03T08:03:12;4.90;99.90
39847;DHT22;25517;52.422;10.782;2023-04-03T08:05:39;6.00;99.90
39847;DHT22;25517;52.422;10.782;2023-04-03T08:08:06;6.60;99.90
39847;DHT22;25517;52.422;10.782;2023-04-03T08:10:31;7.10;99.90
39847;DHT22;25517;52.422;10.782;2023-04-03T08:12:57;7.40;97.40
39847;DHT22;25517;52.422;10.782;2023-04-03T08:15:23;7.40;97.40
39847;DHT22;25517;52.422;10.782;2023-04-03T08:17:49;7.40;96.10
39847;DHT22;25517;52.422;10.782;2023-04-03T08:20:14;7.70;95.70
39847;DHT22;25517;52.422;10.782;2023-04-03T08:22:40;8.40;94.00
39847;DHT22;25517;52.422;10.782;2023-04-03T08:25:06;9.10;91.70
39847;DHT22;25517;52.422;10.782;2023-04-03T08:27:32;10.20;88.70
39847;DHT22;25517;52.422;10.782;2023-04-03T08:29:57;11.50;85.00
39847;DHT22;25517;52.422;10.782;2023-04-03T08:32:23;12.90;75.80
39847;DHT22;25517;52.422;10.782;2023-04-03T08:34:49;13.50;69.40
39847;DHT22;25517;52.422;10.782;2023-04-03T08:37:15;14.20;69.00
39847;DHT22;25517;52.422;10.782;2023-04-03T08:39:42;15.40;63.40
39847;DHT22;25517;52.422;10.782;2023-04-03T08:45:09;16.50;58.80
39847;DHT22;25517;52.422;10.782;2023-04-03T08:50:16;17.90;58.60
39847;DHT22;25517;52.422;10.782;2023-04-03T08:52:52;18.80;54.60
39847;DHT22;25517;52.422;10.782;2023-04-03T08:55:27;19.80;54.00
39847;DHT22;25517;52.422;10.782;2023-04-03T08:58:12;19.90;51.30
39847;DHT22;25517;52.422;10.782;2023-04-03T09:01:05;20.70;50.40
39847;DHT22;25517;52.422;10.782;2023-04-03T09:03:32;20.80;51.20
39847;DHT22;25517;52.422;10.782;2023-04-03T09:06:07;20.30;48.60
39847;DHT22;25517;52.422;10.782;2023-04-03T09:08:49;20.80;48.60
39847;DHT22;25517;52.422;10.782;2023-04-03T09:17:26;21.00;48.30
39847;DHT22;25517;52.422;10.782;2023-04-03T09:20:17;21.80;42.60
39847;DHT22;25517;52.422;10.782;2023-04-03T09:22:45;21.50;43.70
39847;DHT22;25517;52.422;10.782;2023-04-03T09:25:20;21.00;44.70
39847;DHT22;25517;52.422;10.782;2023-04-03T09:27:46;20.70;44.70
39847;DHT22;25517;52.422;10.782;2023-04-03T09:30:18;21.50;45.60
39847;DHT22;25517;52.422;10.782;2023-04-03T09:32:46;22.10;42.00
39847;DHT22;25517;52.422;10.782;2023-04-03T09:35:30;22.20;42.90
39847;DHT22;25517;52.422;10.782;2023-04-03T09:40:42;23.60;41.20
39847;DHT22;25517;52.422;10.782;2023-04-03T09:43:30;24.00;41.70
39847;DHT22;25517;52.422;10.782;2023-04-03T09:46:15;22.40;40.40
39847;DHT22;25517;52.422;10.782;2023-04-03T09:49:00;20.60;41.70
39847;DHT22;25517;52.422;10.782;2023-04-03T09:51:27;18.40;46.20
39847;DHT22;25517;52.422;10.782;2023-04-03T09:53:53;19.50;46.20
39847;DHT22;25517;52.422;10.782;2023-04-03T09:56:21;20.10;44.10
39847;DHT22;25517;52.422;10.782;2023-04-03T09:58:48;20.20;44.80
39847;DHT22;25517;52.422;10.782;2023-04-03T10:01:27;20.40;43.70
39847;DHT22;25517;52.422;10.782;2023-04-03T10:04:10;21.50;45.70
39847;DHT22;25517;52.422;10.782;2023-04-03T10:06:41;20.30;44.20
39847;DHT22;25517;52.422;10.782;2023-04-03T10:09:31;18.60;43.70
39847;DHT22;25517;52.422;10.782;2023-04-03T10:12:07;18.40;45.80
39847;DHT22;25517;52.422;10.782;2023-04-03T10:14:37;17.30;47.50
39847;DHT22;25517;52.422;10.782;2023-04-03T10:19:57;14.80;50.60
39847;DHT22;25517;52.422;10.782;2023-04-03T10:28:05;11.20;56.40
39847;DHT22;25517;52.422;10.782;2023-04-03T10:33:33;9.70;58.60
39847;DHT22;25517;52.422;10.782;2023-04-03T10:39:30;9.80;60.00
39847;DHT22;25517;52.422;10.782;2023-04-03T10:47:59;14.40;56.70
39847;DHT22;25517;52.422;10.782;2023-04-03T10:50:38;16.10;51.30
39847;DHT22;25517;52.422;10.782;2023-04-03T10:56:08;18.50;45.90
39847;DHT22;25517;52.422;10.782;2023-04-03T10:58:39;17.30;45.90
39847;DHT22;25517;52.422;10.782;2023-04-03T11:01:14;17.40;46.90
39847;DHT22;25517;52.422;10.782;2023-04-03T11:03:45;18.20;46.70
39847;DHT22;25517;52.422;10.782;2023-04-03T11:06:14;19.30;46.10
39847;DHT22;25517;52.422;10.782;2023-04-03T11:09:03;20.00;45.50
39847;DHT22;25517;52.422;10.782;2023-04-03T11:11:38;21.20;44.60
39847;DHT22;25517;52.422;10.782;2023-04-03T11:14:08;20.70;42.00
39847;DHT22;25517;52.422;10.782;2023-04-03T11:16:38;19.60;43.80
39847;DHT22;25517;52.422;10.782;2023-04-03T11:21:57;18.80;47.80
39847;DHT22;25517;52.422;10.782;2023-04-03T11:24:28;17.80;46.50
39847;DHT22;25517;52.422;10.782;2023-04-03T11:26:56;19.00;45.50
39847;DHT22;25517;52.422;10.782;2023-04-03T11:29:26;19.60;43.60
39847;DHT22;25517;52.422;10.782;2023-04-03T11:32:07;19.50;44.40
39847;DHT22;25517;52.422;10.782;2023-04-03T11:34:37;20.00;43.70
39847;DHT22;25517;52.422;10.782;2023-04-03T11:37:13;18.60;44.00
39847;DHT22;25517;52.422;10.782;2023-04-03T11:40:07;16.90;45.30
39847;DHT22;25517;52.422;10.782;2023-04-03T11:42:44;15.60;48.20
39847;DHT22;25517;52.422;10.782;2023-04-03T11:50:45;12.30;53.90
39847;DHT22;25517;52.422;10.782;2023-04-03T11:55:52;11.00;55.10
39847;DHT22;25517;52.422;10.782;2023-04-03T11:58:33;10.80;56.70
39847;DHT22;25517;52.422;10.782;2023-04-03T12:01:09;13.00;55.70
39847;DHT22;25517;52.422;10.782;2023-04-03T12:16:29;12.40;53.20
39847;DHT22;25517;52.422;10.782;2023-04-03T12:18:57;12.60;53.00
39847;DHT22;25517;52.422;10.782;2023-04-03T12:32:24;14.60;50.80
39847;DHT22;25517;52.422;10.782;2023-04-03T12:43:33;12.80;54.30
39847;DHT22;25517;52.422;10.782;2023-04-03T12:48:51;11.20;52.90
39847;DHT22;25517;52.422;10.782;2023-04-03T12:51:22;11.70;54.60
39847;DHT22;25517;52.422;10.782;2023-04-03T12:56:41;13.00;53.30
39847;DHT22;25517;52.422;10.782;2023-04-03T12:59:21;13.20;54.40
39847;DHT22;25517;52.422;10.782;2023-04-03T13:01:57;13.50;53.50
39847;DHT22;25517;52.422;10.782;2023-04-03T13:04:23;13.80;53.20
39847;DHT22;25517;52.422;10.782;2023-04-03T13:06:50;14.00;53.70
39847;DHT22;25517;52.422;10.782;2023-04-03T13:09:28;14.40;52.50
39847;DHT22;25517;52.422;10.782;2023-04-03T13:12:03;14.20;48.90
39847;DHT22;25517;52.422;10.782;2023-04-03T13:14:29;14.10;52.30
39847;DHT22;25517;52.422;10.782;2023-04-03T13:17:03;14.10;52.40
39847;DHT22;25517;52.422;10.782;2023-04-03T13:19:31;13.30;51.70
39847;DHT22;25517;52.422;10.782;2023-04-03T13:22:07;13.40;56.40
39847;DHT22;25517;52.422;10.782;2023-04-03T13:24:36;13.70;55.90
39847;DHT22;25517;52.422;10.782;2023-04-03T13:27:02;14.00;54.00
39847;DHT22;25517;52.422;10.782;2023-04-03T13:29:32;13.80;52.70
39847;DHT22;25517;52.422;10.782;2023-04-03T13:31:59;13.40;51.70
39847;DHT22;25517;52.422;10.782;2023-04-03T13:34:28;13.70;55.00
39847;DHT22;25517;52.422;10.782;2023-04-03T13:36:58;13.50;54.00
39847;DHT22;25517;52.422;10.782;2023-04-03T13:39:28;13.20;53.40
39847;DHT22;25517;52.422;10.782;2023-04-03T13:41:56;12.60;54.50
39847;DHT22;25517;52.422;10.782;2023-04-03T13:46:56;12.00;56.60
39847;DHT22;25517;52.422;10.782;2023-04-03T13:52:03;12.30;56.00
39847;DHT22;25517;52.422;10.782;2023-04-03T13:57:00;12.90;54.00
39847;DHT22;25517;52.422;10.782;2023-04-03T13:59:32;13.00;53.70
39847;DHT22;25517;52.422;10.782;2023-04-03T14:07:02;13.40;52.20
39847;DHT22;25517;52.422;10.782;2023-04-03T14:09:28;13.20;52.30
39847;DHT22;25517;52.422;10.782;2023-04-03T14:12:00;12.60;52.60
39847;DHT22;25517;52.422;10.782;2023-04-03T14:14:30;12.20;53.90
39847;DHT22;25517;52.422;10.782;2023-04-03T14:16:58;11.90;55.50
39847;DHT22;25517;52.422;10.782;2023-04-03T14:19:31;11.40;55.00
39847;DHT22;25517;52.422;10.782;2023-04-03T14:21:59;11.10;56.80
39847;DHT22;25517;52.422;10.782;2023-04-03T14:24:25;10.90;58.40
39847;DHT22;25517;52.422;10.782;2023-04-03T14:26:54;10.70;57.80
39847;DHT22;25517;52.422;10.782;2023-04-03T14:29:21;10.40;56.70
39847;DHT22;25517;52.422;10.782;2023-04-03T14:31:48;10.10;58.50
39847;DHT22;25517;52.422;10.782;2023-04-03T14:34:15;10.20;57.90
39847;DHT22;25517;52.422;10.782;2023-04-03T14:36:42;10.50;58.00
39847;DHT22;25517;52.422;10.782;2023-04-03T14:39:15;10.30;57.70
39847;DHT22;25517;52.422;10.782;2023-04-03T14:41:42;10.60;57.90
39847;DHT22;25517;52.422;10.782;2023-04-03T14:44:08;11.10;60.20
39847;DHT22;25517;52.422;10.782;2023-04-03T14:46:44;11.60;57.90
39847;DHT22;25517;52.422;10.782;2023-04-03T14:49:15;11.50;56.20
39847;DHT22;25517;52.422;10.782;2023-04-03T14:51:43;11.30;56.90
39847;DHT22;25517;52.422;10.782;2023-04-03T14:54:18;10.70;57.80
39847;DHT22;25517;52.422;10.782;2023-04-03T14:56:44;10.50;57.30
39847;DHT22;25517;52.422;10.782;2023-04-03T14:59:12;10.20;58.10
39847;DHT22;25517;52.422;10.782;2023-04-03T15:01:38;9.80;59.90
39847;DHT22;25517;52.422;10.782;2023-04-03T15:04:12;9.60;60.00
39847;DHT22;25517;52.422;10.782;2023-04-03T15:06:39;9.30;59.70
39847;DHT22;25517;52.422;10.782;2023-04-03T15:09:04;9.40;60.50
39847;DHT22;25517;52.422;10.782;2023-04-03T15:11:30;9.40;58.50
39847;DHT22;25517;52.422;10.782;2023-04-03T15:13:56;9.60;59.50
39847;DHT22;25517;52.422;10.782;2023-04-03T15:16:29;9.80;57.20
39847;DHT22;25517;52.422;10.782;2023-04-03T15:18:55;10.00;57.70
39847;DHT22;25517;52.422;10.782;2023-04-03T15:21:20;10.20;58.90
39847;DHT22;25517;52.422;10.782;2023-04-03T15:23:46;10.20;56.40
39847;DHT22;25517;52.422;10.782;2023-04-03T15:26:11;10.30;57.30
39847;DHT22;25517;52.422;10.782;2023-04-03T15:28:39;10.30;56.20
39847;DHT22;25517;52.422;10.782;2023-04-03T15:31:05;10.70;57.30
39847;DHT22;25517;52.422;10.782;2023-04-03T15:33:34;10.70;56.80
39847;DHT22;25517;52.422;10.782;2023-04-03T15:35:59;10.40;56.80
39847;DHT22;25517;52.422;10.782;2023-04-03T15:38:25;10.00;57.70
39847;DHT22;25517;52.422;10.782;2023-04-03T15:40:51;9.70;60.20
39847;DHT22;25517;52.422;10.782;2023-04-03T15:43:16;9.20;58.20
39847;DHT22;25517;52.422;10.782;2023-04-03T15:45:43;9.00;59.60
39847;DHT22;25517;52.422;10.782;2023-04-03T15:48:09;8.80;60.10
39847;DHT22;25517;52.422;10.782;2023-04-03T15:50:35;8.60;59.70
39847;DHT22;25517;52.422;10.782;2023-04-03T15:53:01;8.50;61.80
39847;DHT22;25517;52.422;10.782;2023-04-03T15:55:29;8.60;61.50
39847;DHT22;25517;52.422;10.782;2023-04-03T15:57:56;8.80;60.10
39847;DHT22;25517;52.422;10.782;2023-04-03T16:00:23;9.00;61.00
39847;DHT22;25517;52.422;10.782;2023-04-03T16:02:52;9.30;60.20
39847;DHT22;25517;52.422;10.782;2023-04-03T16:05:19;9.30;59.20
39847;DHT22;25517;52.422;10.782;2023-04-03T16:07:45;9.10;59.80
39847;DHT22;25517;52.422;10.782;2023-04-03T16:10:13;8.90;59.90
39847;DHT22;25517;52.422;10.782;2023-04-03T16:12:39;8.70;60.00
39847;DHT22;25517;52.422;10.782;2023-04-03T16:15:06;8.30;60.20
39847;DHT22;25517;52.422;10.782;2023-04-03T16:17:33;8.10;60.00
39847;DHT22;25517;52.422;10.782;2023-04-03T16:19:59;8.00;60.40
39847;DHT22;25517;52.422;10.782;2023-04-03T16:22:27;7.90;61.80
39847;DHT22;25517;52.422;10.782;2023-04-03T16:24:53;7.80;62.30
39847;DHT22;25517;52.422;10.782;2023-04-03T16:27:19;7.80;63.30
39847;DHT22;25517;52.422;10.782;2023-04-03T16:29:44;7.80;63.00
39847;DHT22;25517;52.422;10.782;2023-04-03T16:32:11;7.80;63.30
39847;DHT22;25517;52.422;10.782;2023-04-03T16:34:37;8.00;62.70
39847;DHT22;25517;52.422;10.782;2023-04-03T16:37:03;8.20;61.90
39847;DHT22;25517;52.422;10.782;2023-04-03T16:39:28;8.20;61.80
39847;DHT22;25517;52.422;10.782;2023-04-03T16:41:54;8.20;61.20
39847;DHT22;25517;52.422;10.782;2023-04-03T16:44:20;8.10;62.30
39847;DHT22;25517;52.422;10.782;2023-04-03T16:46:45;7.90;63.20
39847;DHT22;25517;52.422;10.782;2023-04-03T16:49:11;7.80;63.70
39847;DHT22;25517;52.422;10.782;2023-04-03T16:51:36;7.60;62.50
39847;DHT22;25517;52.422;10.782;2023-04-03T16:54:02;7.40;63.90
39847;DHT22;25517;52.422;10.782;2023-04-03T16:56:27;7.30;63.20
39847;DHT22;25517;52.422;10.782;2023-04-03T16:58:53;7.20;63.30
39847;DHT22;25517;52.422;10.782;2023-04-03T17:01:21;7.10;65.00
39847;DHT22;25517;52.422;10.782;2023-04-03T17:03:47;7.00;64.20
39847;DHT22;25517;52.422;10.782;2023-04-03T17:06:17;6.90;63.70
39847;DHT22;25517;52.422;10.782;2023-04-03T17:08:45;6.80;65.00
39847;DHT22;25517;52.422;10.782;2023-04-03T17:11:11;6.80;65.40
39847;DHT22;25517;52.422;10.782;2023-04-03T17:13:36;6.70;66.10
39847;DHT22;25517;52.422;10.782;2023-04-03T17:16:04;6.80;67.00
39847;DHT22;25517;52.422;10.782;2023-04-03T17:18:31;6.70;65.00
39847;DHT22;25517;52.422;10.782;2023-04-03T17:20:57;6.80;66.10